Flight Track Log - Related Links

Times and Time Zones

All times are in EST time to prevent confusion due to time zone crossing. See the N11TK flight status page for this flight to view local times or setup timezone preferences in your user account.

Time Position Orientation Groundspeed Altitude Reporting Facility
EST Latitude Longitude Course Direction KTS MPH feet Rate Location/Type
Wed 04:05:26 PM 27.7397 -97.5158 244° Southwest 126 145 1,000  Level Houston Center
Wed 04:06:20 PM 27.7244 -97.5519 244° Southwest 147 169 2,000 1,143 Climbing Houston Center
Wed 04:06:29 PM 27.7219 -97.5578 244° Southwest 141 162 2,200 1,268 Climbing Houston Center
Wed 04:07:31 PM 27.7300 -97.5928 285° West 143 165 3,500 1,210 Climbing Houston Center
Wed 04:08:33 PM 27.7672 -97.6097 338° Northwest 141 162 4,700 1,161 Climbing Houston Center
Wed 04:09:35 PM 27.8061 -97.6261 340° North 142 163 5,900 1,161 Climbing Houston Center
Wed 04:10:37 PM 27.8464 -97.6436 339° North 142 163 7,100 1,296 Climbing Houston Center
Wed 04:11:40 PM 27.8856 -97.6603 339° North 144 166 8,600 1,344 Climbing Houston Center
Wed 04:12:42 PM 27.9253 -97.6769 340° North 145 167 9,900 1,258 Climbing Houston Center
Wed 04:13:44 PM 27.9653 -97.6933 340° North 146 168 11,200 1,258 Climbing Houston Center
Wed 04:14:46 PM 28.0064 -97.7114 339° North 152 175 12,500 1,355 Climbing Houston Center
Wed 04:15:48 PM 28.0564 -97.7311 341° North 168 193 14,000 1,344 Climbing Houston Center
Wed 04:16:51 PM 28.1031 -97.7486 342° North 172 198 15,300 1,200 Climbing Houston Center
Wed 04:17:53 PM 28.1478 -97.7617 346° North 174 200 16,500 1,210 Climbing Houston Center
Wed 04:18:55 PM 28.2003 -97.7769 346° North 176 203 17,800 1,113 Climbing Houston Center
Wed 04:19:57 PM 28.2294 -97.8150 311° West 161 185 18,800 1,113 Climbing Houston Center
Wed 04:20:59 PM 28.2628 -97.8539 314° West 159 183 20,100 1,065 Climbing Houston Center
Wed 04:22:01 PM 28.2922 -97.8900 313° West 157 181 21,000 864 Climbing Houston Center
Wed 04:23:04 PM 28.3219 -97.9256 314° West 154 177 21,900 480 Climbing Houston Center
Wed 04:24:06 PM 28.3533 -97.9644 313° West 163 188 22,000 48 Climbing Houston Center
Wed 04:25:08 PM 28.3914 -98.0106 313° West 188 216 22,000  Level Houston Center
Wed 04:26:10 PM 28.4325 -98.0625 312° West 199 229 22,000  Level Houston Center
Wed 04:27:12 PM 28.4717 -98.1094 314° West 200 230 22,000  Level Houston Center
Wed 04:28:14 PM 28.5136 -98.1553 316° Northwest 202 232 22,000  Level Houston Center
Wed 04:29:17 PM 28.5772 -98.1714 347° North 223 257 22,000  Level Houston Center
Wed 04:30:19 PM 28.6389 -98.1906 345° North 224 258 22,000  Level Houston Center
Wed 04:31:21 PM 28.7075 -98.2117 345° North 227 261 22,000  Level Houston Center
Wed 04:32:23 PM 28.7692 -98.2317 344° North 231 266 22,000  Level Houston Center
Wed 04:33:25 PM 28.8378 -98.2531 345° North 234 269 22,000  Level Houston Center
Wed 04:34:27 PM 28.9017 -98.2725 345° North 236 272 22,000  Level Houston Center
Wed 04:35:30 PM 28.9703 -98.2942 345° North 238 274 22,000  Level Houston Center
Wed 04:36:32 PM 29.0342 -98.3131 346° North 237 273 22,000  Level Houston Center
Wed 04:37:34 PM 29.1039 -98.3356 344° North 239 275 22,000  Level Houston Center
Wed 04:38:36 PM 29.1692 -98.3561 345° North 241 277 22,000  Level Houston Center
Wed 04:39:38 PM 29.2406 -98.3778 345° North 244 281 22,000  Level Houston Center
Wed 04:40:41 PM 29.3072 -98.3983 345° North 246 283 22,000  Level Houston Center
Wed 04:41:43 PM 29.3769 -98.4200 345° North 244 281 22,000  Level Houston Center
Wed 04:42:45 PM 29.4411 -98.4400 345° North 241 277 22,000  Level Houston Center
Wed 04:43:47 PM 29.5094 -98.4606 345° North 242 278 22,000  Level Houston Center
Wed 04:44:49 PM 29.5800 -98.4425 13° North 267 307 22,000  Level Houston Center
Wed 04:45:51 PM 29.6547 -98.3994 27° Northeast 277 319 22,000  Level Houston Center
Wed 04:46:53 PM 29.7222 -98.3600 27° Northeast 275 316 22,000  Level Houston Center
Wed 04:47:56 PM 29.7964 -98.3164 27° Northeast 275 316 22,000  Level Houston Center
Wed 04:48:58 PM 29.8642 -98.2761 27° Northeast 275 316 22,000 -242 Level Houston Center
Wed 04:50:00 PM 29.9392 -98.2325 27° Northeast 281 323 21,500 -435 Descending Houston Center
Wed 04:51:02 PM 30.0094 -98.1917 27° Northeast 283 326 21,100 -242 Descending Houston Center
Wed 04:52:04 PM 30.0839 -98.1475 27° Northeast 281 323 21,000 -48 Descending Houston Center
Wed 04:53:06 PM 30.1511 -98.1083 27° Northeast 274 315 21,000  Level Houston Center
Wed 04:54:09 PM 30.2239 -98.0656 27° Northeast 272 313 21,000  Level Houston Center
Wed 04:55:11 PM 30.2908 -98.0256 27° Northeast 273 314 21,000  Level Houston Center
Wed 04:56:13 PM 30.3556 -97.9856 28° Northeast 274 315 21,000  Level Houston Center
Wed 04:57:15 PM 30.4219 -97.9425 29° Northeast 274 315 21,000  Level Houston Center
Wed 04:58:17 PM 30.4889 -97.8986 29° Northeast 273 314 21,000  Level Houston Center
Wed 04:59:20 PM 30.5558 -97.8547 29° Northeast 273 314 21,000  Level Houston Center
Wed 05:00:22 PM 30.6339 -97.8039 29° Northeast 273 314 21,000  Level Houston Center
Wed 05:01:24 PM 30.7014 -97.7597 29° Northeast 273 314 21,000  Level Houston Center
Wed 05:02:26 PM 30.7686 -97.7156 29° Northeast 273 314 21,000  Level Houston Center
Wed 05:03:28 PM 30.8372 -97.6708 29° Northeast 273 314 21,000  Level Houston Center
Wed 05:04:30 PM 30.9028 -97.6272 30° Northeast 273 314 21,000  Level Houston Center
Wed 05:05:32 PM 30.9703 -97.5831 29° Northeast 273 314 21,000  Level Houston Center
Wed 05:06:35 PM 31.0375 -97.5386 30° Northeast 273 314 21,000  Level Houston Center
Wed 05:07:37 PM 31.1153 -97.4858 30° Northeast 273 314 21,000  Level Houston Center
Wed 05:08:39 PM 31.1842 -97.4422 28° Northeast 273 314 21,000  Level Houston Center
Wed 05:09:41 PM 31.2361 -97.3850 43° Northeast 286 329 21,000  Level Houston Center
Wed 05:10:43 PM 31.2744 -97.3097 59° Northeast 281 323 21,000  Level Houston Center
Wed 05:11:45 PM 31.3428 -97.3169 355° North 248 285 21,000  Level Houston Center
Wed 05:12:48 PM 31.4117 -97.3278 352° North 246 283 21,000  Level Houston Center
Wed 05:13:50 PM 31.4789 -97.3397 351° North 245 282 21,000  Level Houston Center
Wed 05:14:52 PM 31.5475 -97.3525 351° North 245 282 21,000 -387 Level Houston Center
Wed 05:15:54 PM 31.6264 -97.3658 352° North 244 281 20,200 -919 Descending Houston Center
Wed 05:16:56 PM 31.6967 -97.3792 351° North 252 290 19,100 -1,161 Descending Houston Center
Wed 05:17:58 PM 31.7711 -97.3936 351° North 265 305 17,800 -1,258 Descending Houston Center
Wed 05:19:00 PM 31.8425 -97.4050 352° North 261 300 16,500 -1,248 Descending Houston Center
Wed 05:20:03 PM 31.9103 -97.4189 350° North 249 287 15,200 -1,248 Descending Houston Center
Wed 05:21:05 PM 31.9800 -97.4311 352° North 249 287 13,900 -1,258 Descending Houston Center
Wed 05:22:07 PM 32.0497 -97.4447 351° North 249 287 12,600 -1,452 Descending Houston Center
Wed 05:23:09 PM 32.1308 -97.4592 351° North 249 287 10,900 -1,836 Descending Houston Center
Wed 05:24:21 PM 32.2167 -97.4667 356° North 264 304 8,500 -1,956 Descending Dallas / Fort Worth TRACON
Wed 05:25:24 PM 32.2897 -97.4764 354° North 259 298 6,500 -1,680 Descending Fort Worth Center
Wed 05:26:26 PM 32.3283 -97.4072 57° Northeast 242 278 5,000 -823 Descending Fort Worth Center
Wed 05:27:28 PM 32.3461 -97.3461 71° East 200 230 4,800  Descending Fort Worth Center
Wed 05:28:30 PM 32.3617 -97.2886 72° East 177 204 5,000 -48 Climbing Fort Worth Center
Wed 05:29:32 PM 32.3767 -97.2339 72° East 175 201 4,700 -484 Descending Fort Worth Center
Wed 05:30:34 PM 32.3939 -97.1678 73° East 195 224 4,000 -339 Descending Fort Worth Center
Wed 05:31:36 PM 32.4083 -97.1125 73° East 178 205 4,000  Level Fort Worth Center
Wed 05:32:39 PM 32.4225 -97.0564 73° East 170 196 4,000  Level Fort Worth Center
Wed 05:33:41 PM 32.4367 -97.0019 73° East 170 196 4,000  Level Fort Worth Center
Wed 05:34:43 PM 32.4533 -96.9406 72° East 178 205 4,000  Level Fort Worth Center
Wed 05:35:45 PM 32.4692 -96.8825 72° East 182 209 4,000 -290 Level Fort Worth Center
Wed 05:36:47 PM 32.4914 -96.8214 67° East 189 217 3,400 -532 Descending Fort Worth Center
Wed 05:37:49 PM 32.5217 -96.7722 54° Northeast 185 213 2,900 -290 Descending Fort Worth Center
Wed 05:38:51 PM 32.5439 -96.7297 58° Northeast 177 204 2,800 -97 Descending Fort Worth Center

Login

Don't have an account? Register now (free) for customized features, flight alerts, and more!